Time;durP1;ratioP1;P1;durP2;ratioP2;P2;SDS_P1;SDS_P2;PMS_P1;PMS_P2;Temp;Humidity;BMP_temperature;BMP_pressure;BME280_temperature;BME280_humidity;BME280_pressure;Samples;Min_cycle;Max_cycle;Signal;HPM_P1;HPM_P2
2023/03/14 00:01:09;;;;;;;;;;;;;;;20.48;50.74;98724.47;4953999;28;4307;-64
2023/03/14 00:03:36;;;;;;;;;;;;;;;20.48;50.91;98722.31;4956048;28;4139;-64
2023/03/14 00:06:03;;;;;;;;;;;;;;;20.47;50.90;98697.84;4955882;28;4071;-64
2023/03/14 00:08:29;;;;;;;;;;;;;;;20.47;51.00;98700.72;4955098;28;4809;-64
2023/03/14 00:10:57;;;;;;;;;;;;;;;20.47;50.81;98705.75;4953747;28;4128;-64
2023/03/14 00:13:24;;;;;;;;;;;;;;;20.47;50.81;98700.00;4957567;28;4016;-64
2023/03/14 00:15:50;;;;;;;;;;;;;;;20.45;50.93;98685.59;4954126;28;4364;-64
2023/03/14 00:18:16;;;;;;;;;;;;;;;20.46;50.83;98681.31;4954359;28;4523;-63
2023/03/14 00:20:43;;;;;;;;;;;;;;;20.45;50.90;98680.56;4955159;28;4233;-65
2023/03/14 00:23:09;;;;;;;;;;;;;;;20.44;50.81;98667.66;4954605;28;5509;-63
2023/03/14 00:25:35;;;;;;;;;;;;;;;20.45;50.78;98651.84;4953597;28;5020;-64
2023/03/14 00:28:02;;;;;;;;;;;;;;;20.44;50.87;98656.16;4955349;28;4164;-64
2023/03/14 00:30:28;;;;;;;;;;;;;;;20.44;50.77;98659.03;4946973;28;4380;-64
2023/03/14 00:32:54;;;;;;;;;;;;;;;20.43;50.74;98648.97;4955107;28;4122;-64
2023/03/14 00:35:21;;;;;;;;;;;;;;;20.43;50.79;98643.22;4942672;28;4074;-64
2023/03/14 00:37:48;;;;;;;;;;;;;;;20.43;50.74;98648.22;4957711;28;4115;-64
2023/03/14 00:40:14;;;;;;;;;;;;;;;20.43;50.70;98648.97;4954194;28;4277;-64
2023/03/14 00:42:40;;;;;;;;;;;;;;;20.43;50.78;98660.47;4954502;28;4483;-64
2023/03/14 00:45:08;;;;;;;;;;;;;;;20.42;50.80;98644.63;4953601;28;4161;-64
2023/03/14 00:47:34;;;;;;;;;;;;;;;20.42;50.89;98641.75;4954944;28;4039;-65
2023/03/14 00:50:01;;;;;;;;;;;;;;;20.42;50.70;98635.28;4954742;28;4066;-65
2023/03/14 00:52:27;;;;;;;;;;;;;;;20.41;50.71;98623.06;4955376;28;5224;-64
2023/03/14 00:54:54;;;;;;;;;;;;;;;20.40;50.70;98615.84;4958005;28;5415;-64
2023/03/14 00:57:20;;;;;;;;;;;;;;;20.40;50.61;98615.13;4945644;28;4117;-64
2023/03/14 00:59:46;;;;;;;;;;;;;;;20.40;50.70;98615.84;4958944;28;6539;-64
2023/03/14 01:02:13;;;;;;;;;;;;;;;20.39;50.82;98614.41;4939023;28;4073;-63
2023/03/14 01:04:39;;;;;;;;;;;;;;;20.39;50.63;98614.41;4955161;28;4232;-64
2023/03/14 01:07:05;;;;;;;;;;;;;;;20.39;50.65;98597.19;4957293;28;5434;-63
2023/03/14 01:09:32;;;;;;;;;;;;;;;20.38;50.60;98615.81;4957163;28;4447;-64
2023/03/14 01:11:58;;;;;;;;;;;;;;;20.39;50.58;98625.19;4937685;28;4206;-63
2023/03/14 01:14:25;;;;;;;;;;;;;;;20.39;50.60;98628.06;4939078;28;4001;-64
2023/03/14 01:16:51;;;;;;;;;;;;;;;20.38;50.54;98629.47;4957492;28;4186;-64
2023/03/14 01:19:18;;;;;;;;;;;;;;;20.38;50.88;98658.94;4955152;28;4190;-64
2023/03/14 01:21:45;;;;;;;;;;;;;;;20.38;50.59;98676.19;4954159;28;4152;-64
2023/03/14 01:24:11;;;;;;;;;;;;;;;20.36;50.74;98681.91;4943094;28;4375;-64
2023/03/14 01:26:38;;;;;;;;;;;;;;;20.36;50.60;98679.03;4935306;28;4101;-64
2023/03/14 01:29:06;;;;;;;;;;;;;;;20.36;50.72;98678.31;4938113;28;4395;-64
2023/03/14 01:31:35;;;;;;;;;;;;;;;20.35;50.52;98686.22;4942004;28;3940;-63
2023/03/14 01:34:02;;;;;;;;;;;;;;;20.35;50.54;98680.47;4956279;28;4328;-64
2023/03/14 01:36:28;;;;;;;;;;;;;;;20.35;50.44;98671.13;4945308;28;4225;-64
2023/03/14 01:38:58;;;;;;;;;;;;;;;20.34;50.52;98681.91;4944609;28;3980;-64
2023/03/14 01:41:25;;;;;;;;;;;;;;;20.33;50.55;98686.19;4958388;28;4073;-64
2023/03/14 01:43:53;;;;;;;;;;;;;;;20.34;50.49;98687.66;4958423;28;4150;-64
2023/03/14 01:46:32;;;;;;;;;;;;;;;20.33;50.50;98691.94;4942810;28;4138;-64
2023/03/14 01:49:07;;;;;;;;;;;;;;;20.32;50.52;98684.75;4942304;28;4158;-64
2023/03/14 01:51:35;;;;;;;;;;;;;;;20.33;50.60;98685.47;4927585;28;4948;-64
2023/03/14 01:54:04;;;;;;;;;;;;;;;20.33;50.53;98686.19;4945842;28;4191;-64
2023/03/14 01:56:30;;;;;;;;;;;;;;;20.32;50.56;98684.75;4954238;28;4086;-64
2023/03/14 01:58:57;;;;;;;;;;;;;;;20.30;50.46;98676.81;4938350;28;5164;-64
2023/03/14 02:01:24;;;;;;;;;;;;;;;20.30;50.59;98658.88;4940703;28;4061;-64
2023/03/14 02:03:52;;;;;;;;;;;;;;;20.31;50.47;98663.19;4943980;28;6543;-64
2023/03/14 02:06:19;;;;;;;;;;;;;;;20.29;50.40;98657.41;4929765;28;4245;-63
2023/03/14 02:08:49;;;;;;;;;;;;;;;20.29;50.64;98660.28;4958628;28;4015;-64
2023/03/14 02:11:19;;;;;;;;;;;;;;;20.29;50.47;98654.53;4943629;28;4139;-64
2023/03/14 02:14:31;;;;;;;;;;;;;;;20.27;50.49;98660.25;4931618;28;4236;-63
2023/03/14 02:17:17;;;;;;;;;;;;;;;20.28;50.40;98655.97;4920388;28;4184;-63
2023/03/14 02:20:13;;;;;;;;;;;;;;;20.28;50.26;98647.34;4947807;28;5246;-64
2023/03/14 02:22:42;;;;;;;;;;;;;;;20.27;50.30;98643.00;4929958;28;5638;-64
2023/03/14 02:25:21;;;;;;;;;;;;;;;20.27;50.35;98645.88;4924509;28;4370;-63
2023/03/14 02:27:48;;;;;;;;;;;;;;;20.28;50.38;98647.34;4939331;28;4167;-64
2023/03/14 02:30:16;;;;;;;;;;;;;;;20.27;50.36;98632.25;4939625;28;4176;-64
2023/03/14 02:32:46;;;;;;;;;;;;;;;20.27;50.44;98631.50;4939513;28;5343;-65
2023/03/14 02:35:14;;;;;;;;;;;;;;;20.27;50.33;98622.91;4954567;28;4224;-64
2023/03/14 02:37:42;;;;;;;;;;;;;;;20.26;50.37;98624.34;4944325;28;4177;-64
2023/03/14 02:40:09;;;;;;;;;;;;;;;20.26;50.28;98625.06;4945754;28;4047;-64
2023/03/14 02:42:37;;;;;;;;;;;;;;;20.24;50.44;98609.94;4933015;28;4397;-65
2023/03/14 02:45:09;;;;;;;;;;;;;;;20.26;50.35;98612.84;4951377;28;4123;-64
2023/03/14 02:47:42;;;;;;;;;;;;;;;20.25;50.25;98611.41;4955323;28;4014;-64
2023/03/14 02:50:09;;;;;;;;;;;;;;;20.24;50.27;98610.66;4967141;28;5327;-64
2023/03/14 02:52:36;;;;;;;;;;;;;;;20.23;50.37;98594.13;4947270;28;5327;-64
2023/03/14 02:55:03;;;;;;;;;;;;;;;20.24;50.29;98592.69;4951826;28;6039;-64
2023/03/14 02:57:30;;;;;;;;;;;;;;;20.24;50.45;98581.19;4946096;28;4376;-64
2023/03/14 03:00:00;;;;;;;;;;;;;;;20.25;50.29;98576.91;4961031;28;4154;-64
2023/03/14 03:02:30;;;;;;;;;;;;;;;20.23;50.38;98566.13;4948827;28;3984;-64
2023/03/14 03:04:57;;;;;;;;;;;;;;;20.22;50.34;98564.66;4941682;28;4138;-64
2023/03/14 03:07:24;;;;;;;;;;;;;;;20.22;50.26;98561.06;4940162;28;4307;-63
2023/03/14 03:09:53;;;;;;;;;;;;;;;20.23;50.20;98562.53;4940584;28;6126;-64
2023/03/14 03:12:19;;;;;;;;;;;;;;;20.23;50.28;98559.66;4943849;28;4376;-64
2023/03/14 03:14:46;;;;;;;;;;;;;;;20.23;50.19;98553.91;4948026;28;5218;-64
2023/03/14 03:17:14;;;;;;;;;;;;;;;20.22;50.23;98555.31;4964218;28;4529;-64
2023/03/14 03:19:40;;;;;;;;;;;;;;;20.21;50.31;98559.63;4943719;28;4136;-64
2023/03/14 03:22:08;;;;;;;;;;;;;;;20.21;50.13;98551.00;4942701;28;4257;-64
2023/03/14 03:24:35;;;;;;;;;;;;;;;20.22;50.30;98563.94;4958694;28;4271;-64
2023/03/14 03:27:01;;;;;;;;;;;;;;;20.21;50.28;98568.97;4957292;28;4153;-64
2023/03/14 03:29:28;;;;;;;;;;;;;;;20.20;50.19;98586.91;4937865;28;4156;-63
2023/03/14 03:31:54;;;;;;;;;;;;;;;20.19;50.30;98579.72;4954607;28;4140;-64
2023/03/14 03:34:20;;;;;;;;;;;;;;;20.20;50.17;98581.91;4955335;28;5356;-63
2023/03/14 03:36:50;;;;;;;;;;;;;;;20.19;50.28;98576.84;4948162;28;4197;-64
2023/03/14 03:39:16;;;;;;;;;;;;;;;20.19;50.25;98579.72;4949504;28;5505;-63
2023/03/14 03:41:46;;;;;;;;;;;;;;;20.19;50.24;98576.84;4943175;28;4902;-64
2023/03/14 03:44:13;;;;;;;;;;;;;;;20.18;50.26;98566.75;4948680;28;4792;-63
2023/03/14 03:46:40;;;;;;;;;;;;;;;20.20;50.24;98569.66;4947776;28;4153;-64
2023/03/14 03:49:07;;;;;;;;;;;;;;;20.20;50.27;98564.66;4947031;28;4257;-64
2023/03/14 03:51:33;;;;;;;;;;;;;;;20.22;50.01;98555.31;4946211;28;5522;-64
2023/03/14 03:54:00;;;;;;;;;;;;;;;20.27;49.98;98565.41;4941800;28;3985;-64
2023/03/14 03:56:32;;;;;;;;;;;;;;;20.27;49.72;98562.53;4943329;28;4183;-64
2023/03/14 03:58:59;;;;;;;;;;;;;;;20.28;49.71;98558.25;4946168;28;5446;-64
2023/03/14 04:01:25;;;;;;;;;;;;;;;20.31;49.60;98562.59;4946160;28;4144;-64
2023/03/14 04:03:54;;;;;;;;;;;;;;;20.32;49.44;98574.81;4943902;28;4303;-64
2023/03/14 04:06:21;;;;;;;;;;;;;;;20.30;49.51;98561.88;4948482;28;4219;-63
2023/03/14 04:08:49;;;;;;;;;;;;;;;20.31;49.42;98556.84;4938021;28;5487;-64
2023/03/14 04:11:38;;;;;;;;;;;;;;;20.32;49.38;98569.81;4939848;28;5249;-65
2023/03/14 04:14:19;;;;;;;;;;;;;;;20.32;49.45;98564.06;4937838;28;4252;-64
2023/03/14 04:16:48;;;;;;;;;;;;;;;20.31;49.63;98556.84;4958462;28;4122;-64
2023/03/14 04:19:17;;;;;;;;;;;;;;;20.35;49.86;98556.91;4943087;28;4104;-64
2023/03/14 04:21:46;;;;;;;;;;;;;;;20.36;50.14;98551.88;4941929;28;5496;-64
2023/03/14 04:24:13;;;;;;;;;;;;;;;20.35;50.05;98547.56;4956987;28;4173;-64
2023/03/14 04:26:41;;;;;;;;;;;;;;;20.36;50.08;98554.75;4946416;28;4131;-64
2023/03/14 04:29:09;;;;;;;;;;;;;;;20.35;50.11;98536.06;4938183;28;4215;-63
2023/03/14 04:31:39;;;;;;;;;;;;;;;20.34;50.10;98538.22;4944471;28;4256;-64
2023/03/14 04:34:05;;;;;;;;;;;;;;;20.34;50.23;98537.47;4959592;28;4233;-64
2023/03/14 04:36:36;;;;;;;;;;;;;;;20.34;50.24;98514.47;4947613;28;4227;-63
2023/03/14 04:39:08;;;;;;;;;;;;;;;20.33;50.25;98513.75;4936562;28;5292;-64
2023/03/14 04:41:38;;;;;;;;;;;;;;;20.32;50.32;98520.94;4948802;28;4157;-65
2023/03/14 04:44:05;;;;;;;;;;;;;;;20.31;50.32;98505.13;4942635;28;4341;-64
2023/03/14 04:46:32;;;;;;;;;;;;;;;20.31;50.44;98490.75;4947112;28;4177;-63
2023/03/14 04:49:02;;;;;;;;;;;;;;;20.29;50.22;98500.09;4936650;28;4199;-64
2023/03/14 04:51:28;;;;;;;;;;;;;;;20.30;50.28;98503.69;4952007;28;6331;-64
2023/03/14 04:53:55;;;;;;;;;;;;;;;20.29;50.30;98513.72;4953792;28;4160;-63
2023/03/14 04:56:22;;;;;;;;;;;;;;;20.30;50.23;98520.94;4934464;28;4111;-64
2023/03/14 04:58:48;;;;;;;;;;;;;;;20.29;50.36;98533.84;4945821;28;4175;-64
2023/03/14 05:01:17;;;;;;;;;;;;;;;20.28;50.23;98520.91;4953143;28;5272;-64
2023/03/14 05:04:02;;;;;;;;;;;;;;;20.28;50.10;98520.91;4957060;28;4252;-63
2023/03/14 05:06:43;;;;;;;;;;;;;;;20.28;50.20;98518.03;4955686;28;5051;-65
2023/03/14 05:09:41;;;;;;;;;;;;;;;20.27;50.14;98502.19;4940486;28;4135;-64
2023/03/14 05:12:26;;;;;;;;;;;;;;;20.27;50.16;98510.81;4955523;28;4135;-64
2023/03/14 05:14:58;;;;;;;;;;;;;;;20.26;50.20;98501.47;4937571;28;4215;-64
2023/03/14 05:17:39;;;;;;;;;;;;;;;20.26;50.23;98497.91;4945635;28;4204;-64
2023/03/14 05:20:22;;;;;;;;;;;;;;;20.25;50.18;98490.72;4954701;28;4130;-63
2023/03/14 05:22:55;;;;;;;;;;;;;;;20.25;50.13;98490.72;4937636;28;4658;-64
2023/03/14 05:25:42;;;;;;;;;;;;;;;20.25;50.10;98496.47;4953423;28;4161;-63
2023/03/14 05:28:16;;;;;;;;;;;;;;;20.24;50.21;98495.72;4936238;28;4172;-64
2023/03/14 05:30:50;;;;;;;;;;;;;;;20.24;50.21;98489.97;4932980;28;4226;-64
2023/03/14 05:33:40;;;;;;;;;;;;;;;20.23;50.20;98487.81;4913356;28;4168;-64
2023/03/14 05:36:13;;;;;;;;;;;;;;;20.23;50.00;98488.53;4941430;28;4137;-64
2023/03/14 05:38:53;;;;;;;;;;;;;;;20.23;50.04;98491.41;4941077;28;4159;-64
2023/03/14 05:41:31;;;;;;;;;;;;;;;20.23;50.04;98499.31;4954860;28;4174;-64
2023/03/14 05:44:20;;;;;;;;;;;;;;;20.22;49.95;98492.81;4944716;28;4205;-64
2023/03/14 05:47:05;;;;;;;;;;;;;;;20.23;49.99;98493.56;4956429;28;4212;-63
2023/03/14 05:49:48;;;;;;;;;;;;;;;20.22;49.91;98494.97;4944167;28;4323;-63
2023/03/14 05:52:33;;;;;;;;;;;;;;;20.22;49.89;98489.22;4955499;28;4556;-63
2023/03/14 05:55:15;;;;;;;;;;;;;;;20.21;49.95;98496.41;4956050;28;4234;-64
2023/03/14 05:57:53;;;;;;;;;;;;;;;20.20;49.93;98489.22;4957718;28;5307;-64
2023/03/14 06:00:34;;;;;;;;;;;;;;;20.20;49.89;98492.09;4942980;28;4072;-63
2023/03/14 06:03:13;;;;;;;;;;;;;;;20.22;49.73;98492.09;4936469;28;4115;-63
2023/03/14 06:05:43;;;;;;;;;;;;;;;20.24;49.73;98492.13;4940712;28;4419;-63
2023/03/14 06:08:10;;;;;;;;;;;;;;;20.26;49.51;98486.41;4937971;28;4231;-68
2023/03/14 06:10:37;;;;;;;;;;;;;;;20.00;48.43;98490.47;4938525;28;4774;-64
2023/03/14 06:13:03;;;;;;;;;;;;;;;19.93;48.16;98485.34;4944020;28;5201;-65
2023/03/14 06:15:32;;;;;;;;;;;;;;;20.07;48.20;98483.34;4941533;28;5536;-65
2023/03/14 06:17:59;;;;;;;;;;;;;;;20.14;48.95;98492.03;4946147;28;4209;-63
2023/03/14 06:20:26;;;;;;;;;;;;;;;20.24;48.92;98472.72;4946782;28;4234;-66
2023/03/14 06:22:53;;;;;;;;;;;;;;;20.27;49.09;98484.97;4954457;28;4283;-63
2023/03/14 06:25:19;;;;;;;;;;;;;;;20.39;50.08;98473.59;4938847;28;4142;-64
2023/03/14 06:27:47;;;;;;;;;;;;;;;20.56;50.08;98467.97;4946413;28;5285;-67
2023/03/14 06:30:14;;;;;;;;;;;;;;;20.59;50.58;98472.31;4949135;28;4250;-67
2023/03/14 06:32:41;;;;;;;;;;;;;;;20.66;50.59;98491.06;4957673;28;5279;-66
2023/03/14 06:35:10;;;;;;;;;;;;;;;20.51;49.62;98493.78;4958858;28;4118;-65
2023/03/14 06:37:40;;;;;;;;;;;;;;;20.23;49.16;98502.19;4947188;28;4201;-65
2023/03/14 06:40:07;;;;;;;;;;;;;;;20.27;48.90;98505.06;4943301;28;4148;-65
2023/03/14 06:42:48;;;;;;;;;;;;;;;20.32;48.79;98506.59;4948206;28;4280;-65
2023/03/14 06:45:16;;;;;;;;;;;;;;;20.33;48.78;98513.75;4954360;28;4207;-65
2023/03/14 06:47:43;;;;;;;;;;;;;;;20.36;49.17;98511.63;4965637;28;4009;-65
2023/03/14 06:50:10;;;;;;;;;;;;;;;20.37;49.83;98513.81;4946383;28;5526;-66
2023/03/14 06:52:37;;;;;;;;;;;;;;;20.32;50.25;98515.19;4959014;28;4296;-67
2023/03/14 06:55:03;;;;;;;;;;;;;;;20.16;49.08;98517.91;4960187;28;4258;-67
2023/03/14 06:57:30;;;;;;;;;;;;;;;19.88;48.37;98505.44;4942027;28;4414;-67
2023/03/14 06:59:56;;;;;;;;;;;;;;;19.70;47.74;98510.22;4944620;28;6332;-67
2023/03/14 07:02:23;;;;;;;;;;;;;;;19.47;47.54;98518.56;4947358;28;4237;-67
2023/03/14 07:05:10;;;;;;;;;;;;;;;19.68;46.83;98513.78;4948287;28;4512;-67
2023/03/14 07:07:37;;;;;;;;;;;;;;;19.60;46.43;98523.00;4945574;28;4170;-67
2023/03/14 07:10:03;;;;;;;;;;;;;;;19.66;46.19;98523.09;4958818;28;4070;-67
2023/03/14 07:12:30;;;;;;;;;;;;;;;19.74;46.06;98528.22;4957389;28;4229;-65
2023/03/14 07:14:56;;;;;;;;;;;;;;;19.73;45.55;98535.41;4946518;28;4125;-68
2023/03/14 07:17:28;;;;;;;;;;;;;;;19.89;46.46;98526.25;4947736;28;5766;-68
2023/03/14 07:19:55;;;;;;;;;;;;;;;19.98;45.62;98527.78;4949694;28;4519;-65
2023/03/14 07:22:22;;;;;;;;;;;;;;;20.06;45.44;98539.34;4946830;28;5328;-64
2023/03/14 07:24:49;;;;;;;;;;;;;;;20.17;45.05;98539.47;4949559;28;4181;-65
2023/03/14 07:27:15;;;;;;;;;;;;;;;20.13;44.67;98545.16;4960413;28;4201;-64
2023/03/14 07:29:42;;;;;;;;;;;;;;;20.31;44.56;98553.97;4949878;28;4158;-65
2023/03/14 07:32:08;;;;;;;;;;;;;;;20.32;44.06;98552.56;4957305;28;4045;-65
2023/03/14 07:34:35;;;;;;;;;;;;;;;20.38;44.28;98555.47;4959012;28;4045;-66
2023/03/14 07:37:01;;;;;;;;;;;;;;;20.43;44.04;98551.22;4964540;28;4275;-67
2023/03/14 07:39:27;;;;;;;;;;;;;;;20.48;43.90;98552.72;4946761;28;4199;-67
2023/03/14 07:42:00;;;;;;;;;;;;;;;20.56;43.85;98557.81;4946018;28;3991;-66
2023/03/14 07:44:47;;;;;;;;;;;;;;;20.68;44.23;98545.69;4940262;28;4209;-67
2023/03/14 07:47:13;;;;;;;;;;;;;;;20.55;44.28;98549.88;4956164;28;4662;-65
2023/03/14 07:49:39;;;;;;;;;;;;;;;20.53;45.27;98552.75;4959263;28;4243;-63
2023/03/14 07:52:06;;;;;;;;;;;;;;;20.71;45.43;98550.78;4958260;28;5114;-64
2023/03/14 07:54:32;;;;;;;;;;;;;;;20.64;45.68;98539.94;4957978;28;4286;-65
2023/03/14 07:57:00;;;;;;;;;;;;;;;20.51;45.84;98548.41;4959993;28;4289;-65
2023/03/14 07:59:27;;;;;;;;;;;;;;;20.53;46.29;98547.72;4958582;28;4050;-67
2023/03/14 08:01:53;;;;;;;;;;;;;;;20.53;46.32;98547.00;4956159;28;4353;-66
2023/03/14 08:04:19;;;;;;;;;;;;;;;20.55;46.25;98526.88;4958186;28;4029;-67
2023/03/14 08:06:46;;;;;;;;;;;;;;;20.55;46.17;98532.63;4956664;28;4085;-65
2023/03/14 08:09:12;;;;;;;;;;;;;;;20.55;46.28;98538.38;4955775;28;4092;-67
2023/03/14 08:11:38;;;;;;;;;;;;;;;20.54;46.47;98522.56;4953416;28;4134;-66
2023/03/14 08:14:05;;;;;;;;;;;;;;;20.57;46.33;98518.28;4950152;28;4670;-66
2023/03/14 08:16:31;;;;;;;;;;;;;;;20.55;46.48;98524.75;4956198;28;4223;-67
2023/03/14 08:18:57;;;;;;;;;;;;;;;20.56;46.34;98528.34;4958126;28;4146;-66
2023/03/14 08:21:24;;;;;;;;;;;;;;;20.54;46.33;98525.44;4956795;28;4199;-67
2023/03/14 08:23:50;;;;;;;;;;;;;;;20.56;46.42;98528.34;4938800;28;4176;-66
2023/03/14 08:26:16;;;;;;;;;;;;;;;20.55;46.36;98524.00;4955859;28;4215;-66
2023/03/14 08:28:43;;;;;;;;;;;;;;;20.54;46.63;98534.06;4957545;28;4136;-65
2023/03/14 08:31:09;;;;;;;;;;;;;;;20.55;46.97;98535.50;4956056;28;4113;-65
2023/03/14 08:33:36;;;;;;;;;;;;;;;20.58;46.98;98540.59;4948683;28;4107;-65
2023/03/14 08:36:02;;;;;;;;;;;;;;;20.55;46.96;98538.38;4949276;28;4245;-66
2023/03/14 08:38:29;;;;;;;;;;;;;;;20.63;47.01;98527.69;4954986;28;4210;-65
2023/03/14 08:40:56;;;;;;;;;;;;;;;20.70;46.92;98537.09;4956076;28;4098;-66
2023/03/14 08:43:22;;;;;;;;;;;;;;;20.70;46.77;98549.31;4953848;28;4219;-65
2023/03/14 08:45:49;;;;;;;;;;;;;;;20.68;46.81;98551.44;4947817;28;5263;-65
2023/03/14 08:48:15;;;;;;;;;;;;;;;20.71;46.82;98550.78;4955948;28;3984;-62
2023/03/14 08:50:41;;;;;;;;;;;;;;;20.77;46.61;98549.38;4951158;28;4200;-67
2023/03/14 08:53:08;;;;;;;;;;;;;;;20.71;46.90;98562.28;4950450;28;4089;-67
2023/03/14 08:55:35;;;;;;;;;;;;;;;20.82;46.51;98559.47;4955627;28;4196;-68
2023/03/14 08:58:01;;;;;;;;;;;;;;;20.85;46.07;98555.19;4957781;28;4464;-65
2023/03/14 09:00:27;;;;;;;;;;;;;;;20.78;46.39;98565.94;4952798;28;5386;-66
2023/03/14 09:02:54;;;;;;;;;;;;;;;20.75;46.55;98555.81;4953464;28;4887;-65
2023/03/14 09:05:20;;;;;;;;;;;;;;;20.66;46.79;98548.56;4955776;28;4980;-65
2023/03/14 09:07:46;;;;;;;;;;;;;;;20.56;47.01;98546.31;4959946;28;4130;-64
2023/03/14 09:10:13;;;;;;;;;;;;;;;20.65;46.50;98529.88;4958579;28;5307;-63
2023/03/14 09:12:39;;;;;;;;;;;;;;;20.77;46.40;98527.09;4957033;28;4048;-64
2023/03/14 09:15:06;;;;;;;;;;;;;;;20.61;46.34;98524.09;4954245;28;4039;-66
2023/03/14 09:17:32;;;;;;;;;;;;;;;20.74;46.45;98530.66;4955585;28;4150;-64
2023/03/14 09:19:58;;;;;;;;;;;;;;;20.88;46.58;98528.59;4960272;28;5266;-64
2023/03/14 09:22:26;;;;;;;;;;;;;;;20.97;46.08;98522.91;4959214;28;5056;-63
2023/03/14 09:24:52;;;;;;;;;;;;;;;21.05;46.32;98517.94;4953951;28;5344;-64
2023/03/14 09:27:18;;;;;;;;;;;;;;;21.11;45.84;98517.25;4954133;28;5363;-65
2023/03/14 09:29:45;;;;;;;;;;;;;;;20.98;46.75;98513.59;4951988;28;5259;-64
2023/03/14 09:32:11;;;;;;;;;;;;;;;20.95;46.59;98506.34;4958064;28;5208;-63
2023/03/14 09:34:37;;;;;;;;;;;;;;;20.95;46.62;98525.78;4954734;28;4094;-70
2023/03/14 09:37:04;;;;;;;;;;;;;;;21.02;46.19;98521.50;4957691;28;4268;-65
2023/03/14 09:39:30;;;;;;;;;;;;;;;21.26;45.74;98518.06;4951247;28;4536;-65
2023/03/14 09:41:57;;;;;;;;;;;;;;;21.34;45.49;98518.81;4954414;28;4203;-64
2023/03/14 09:44:24;;;;;;;;;;;;;;;21.32;45.56;98520.97;4949684;28;4295;-63
2023/03/14 09:46:51;;;;;;;;;;;;;;;21.30;45.46;98512.31;4944997;28;4158;-66
2023/03/14 09:49:22;;;;;;;;;;;;;;;21.22;45.66;98524.50;4933636;28;4643;-65
2023/03/14 09:51:49;;;;;;;;;;;;;;;21.13;46.18;98523.03;4951863;28;4150;-67
2023/03/14 09:54:41;;;;;;;;;;;;;;;21.14;46.11;98530.22;4939794;28;5410;-67
2023/03/14 09:57:12;;;;;;;;;;;;;;;21.20;45.74;98515.88;4950951;28;4164;-67
2023/03/14 09:59:38;;;;;;;;;;;;;;;21.42;45.13;98526.81;4935217;28;4119;-67
2023/03/14 10:02:12;;;;;;;;;;;;;;;21.54;45.29;98517.50;4953658;28;4356;-68
2023/03/14 10:04:41;;;;;;;;;;;;;;;21.67;44.67;98532.66;4951528;28;4210;-70
2023/03/14 10:07:09;;;;;;;;;;;;;;;21.72;44.62;98523.34;4943927;28;5274;-69
2023/03/14 10:09:36;;;;;;;;;;;;;;;21.77;44.86;98532.00;4938938;28;4151;-67
2023/03/14 10:12:06;;;;;;;;;;;;;;;21.65;44.75;98524.75;4954983;28;4470;-70
2023/03/14 10:14:36;;;;;;;;;;;;;;;21.42;45.02;98528.97;4953804;28;4047;-65
2023/03/14 10:17:06;;;;;;;;;;;;;;;21.17;45.69;98533.84;4955303;28;4200;-68
2023/03/14 10:19:35;;;;;;;;;;;;;;;21.02;45.88;98533.00;4957342;28;4330;-67
2023/03/14 10:22:02;;;;;;;;;;;;;;;20.99;46.02;98531.56;4954688;28;4220;-67
2023/03/14 10:24:30;;;;;;;;;;;;;;;21.08;45.90;98527.31;4958644;28;4081;-68
2023/03/14 10:27:05;;;;;;;;;;;;;;;21.14;45.99;98527.34;4956117;28;4230;-65
2023/03/14 10:29:32;;;;;;;;;;;;;;;21.09;45.91;98540.25;4955825;28;4026;-63
2023/03/14 10:32:02;;;;;;;;;;;;;;;21.05;45.92;98537.34;4954691;28;6370;-65
2023/03/14 10:34:35;;;;;;;;;;;;;;;21.04;46.01;98544.53;4955954;28;4087;-67
2023/03/14 10:37:15;;;;;;;;;;;;;;;21.12;45.82;98547.47;4954694;28;4168;-67
2023/03/14 10:39:45;;;;;;;;;;;;;;;21.08;45.92;98533.78;4950792;28;4159;-65
2023/03/14 10:42:13;;;;;;;;;;;;;;;21.08;45.83;98538.81;4937150;28;4172;-70
2023/03/14 10:44:39;;;;;;;;;;;;;;;21.11;45.58;98526.59;4937218;28;3962;-70
2023/03/14 10:47:06;;;;;;;;;;;;;;;21.13;45.82;98525.91;4943252;28;5221;-69
2023/03/14 10:49:33;;;;;;;;;;;;;;;21.11;45.56;98531.63;4956031;28;5411;-67
2023/03/14 10:52:12;;;;;;;;;;;;;;;21.12;45.56;98528.06;4956815;28;4476;-67
2023/03/14 10:54:38;;;;;;;;;;;;;;;20.96;45.72;98538.72;4955506;28;5296;-69
2023/03/14 10:57:06;;;;;;;;;;;;;;;21.01;45.84;98537.34;4955651;28;4231;-68
2023/03/14 10:59:34;;;;;;;;;;;;;;;20.99;45.90;98546.66;4954695;28;4281;-66
2023/03/14 11:02:17;;;;;;;;;;;;;;;21.00;45.83;98533.00;4945209;28;4848;-67
2023/03/14 11:05:04;;;;;;;;;;;;;;;21.06;45.69;98538.81;4948916;28;4014;-67
2023/03/14 11:07:38;;;;;;;;;;;;;;;21.06;45.94;98530.16;4960525;28;5108;-66
2023/03/14 11:10:23;;;;;;;;;;;;;;;21.10;45.44;98545.31;4958793;28;4227;-65
2023/03/14 11:13:08;;;;;;;;;;;;;;;21.08;45.52;98535.94;4960956;28;4155;-66
2023/03/14 11:15:40;;;;;;;;;;;;;;;21.10;45.80;98539.56;4957364;28;4101;-67
2023/03/14 11:18:07;;;;;;;;;;;;;;;20.99;45.92;98531.56;4941722;28;4377;-70
2023/03/14 11:20:44;;;;;;;;;;;;;;;21.01;45.75;98528.72;4954598;28;3960;-68
2023/03/14 11:23:18;;;;;;;;;;;;;;;21.00;45.73;98527.25;4942713;28;5847;-69
2023/03/14 11:25:50;;;;;;;;;;;;;;;20.99;45.75;98531.56;4960481;28;4376;-68
2023/03/14 11:28:19;;;;;;;;;;;;;;;21.04;46.05;98527.28;4947512;28;4490;-69
2023/03/14 11:30:49;;;;;;;;;;;;;;;20.89;46.29;98527.19;4952688;28;4419;-68
2023/03/14 11:33:17;;;;;;;;;;;;;;;20.82;46.19;98524.97;4957417;28;5180;-66
2023/03/14 11:36:02;;;;;;;;;;;;;;;20.85;46.10;98541.53;4958000;28;4093;-69
2023/03/14 11:38:29;;;;;;;;;;;;;;;20.36;45.78;98529.59;4951748;28;4709;-70
2023/03/14 11:40:56;;;;;;;;;;;;;;;20.50;45.22;98538.34;4954815;28;4082;-67
2023/03/14 11:43:27;;;;;;;;;;;;;;;20.78;45.52;98531.41;4948846;28;4936;-73
2023/03/14 11:49:03;;;;;;;;;;;;;;;21.03;45.37;98537.34;4944486;28;4146;-66
2023/03/14 11:51:34;;;;;;;;;;;;;;;20.49;44.55;98530.44;4951664;28;4206;-78
2023/03/14 11:54:17;;;;;;;;;;;;;;;20.88;44.75;98533.66;4955886;28;4851;-71
2023/03/14 11:56:48;;;;;;;;;;;;;;;21.14;44.79;98524.44;4948045;28;4296;-78
2023/03/14 11:59:23;;;;;;;;;;;;;;;21.20;44.74;98533.13;4936632;28;4228;-69
2023/03/14 12:01:51;;;;;;;;;;;;;;;21.25;44.59;98528.84;4943445;28;4247;-73
2023/03/14 12:04:38;;;;;;;;;;;;;;;21.24;44.58;98524.53;4958610;28;4232;-70
2023/03/14 12:07:08;;;;;;;;;;;;;;;21.30;44.70;98515.94;4940679;28;4053;-74
2023/03/14 12:09:34;;;;;;;;;;;;;;;21.33;44.95;98514.50;4939179;28;6345;-71
2023/03/14 12:12:02;;;;;;;;;;;;;;;21.33;44.83;98517.38;4945407;28;4081;-70
2023/03/14 12:14:29;;;;;;;;;;;;;;;21.33;44.85;98505.88;4954213;28;4254;-73
2023/03/14 12:16:57;;;;;;;;;;;;;;;21.34;44.98;98513.06;4953700;28;4154;-70
2023/03/14 12:19:23;;;;;;;;;;;;;;;21.36;44.96;98508.75;4957127;28;4261;-72
2023/03/14 12:22:00;;;;;;;;;;;;;;;21.34;44.94;98513.06;4956046;28;4157;-70
2023/03/14 12:24:30;;;;;;;;;;;;;;;21.37;45.33;98516.66;4945368;28;4351;-72
2023/03/14 12:26:59;;;;;;;;;;;;;;;21.42;45.15;98506.66;4940345;28;4128;-69
2023/03/14 12:29:25;;;;;;;;;;;;;;;21.45;45.08;98513.16;4956101;28;4172;-69
2023/03/14 12:32:00;;;;;;;;;;;;;;;21.44;45.26;98506.66;4948816;28;4108;-73
2023/03/14 12:34:27;;;;;;;;;;;;;;;21.42;45.76;98511.69;4960230;28;4536;-71
2023/03/14 12:36:55;;;;;;;;;;;;;;;21.46;45.61;98505.94;4956964;28;4105;-67
2023/03/14 12:39:23;;;;;;;;;;;;;;;21.46;45.52;98494.44;4958328;28;4173;-72
2023/03/14 12:41:53;;;;;;;;;;;;;;;21.49;45.64;98501.66;4958475;28;4189;-70
2023/03/14 12:44:28;;;;;;;;;;;;;;;21.46;45.56;98511.69;4952736;28;4247;-71
2023/03/14 12:46:56;;;;;;;;;;;;;;;21.48;45.75;98514.59;4958966;28;4264;-70
2023/03/14 12:49:28;;;;;;;;;;;;;;;21.51;45.72;98518.94;4942189;28;4194;-69
2023/03/14 12:51:58;;;;;;;;;;;;;;;21.54;45.88;98514.63;4952888;28;5350;-69
2023/03/14 12:54:38;;;;;;;;;;;;;;;21.56;45.76;98511.75;4959400;28;4176;-70
2023/03/14 12:57:08;;;;;;;;;;;;;;;21.56;45.82;98499.53;4946797;28;5478;-70
2023/03/14 12:59:35;;;;;;;;;;;;;;;21.54;45.97;98503.09;4953813;28;4171;-72
2023/03/14 13:02:08;;;;;;;;;;;;;;;21.57;45.85;98513.19;4949274;28;4120;-71
2023/03/14 13:04:35;;;;;;;;;;;;;;;21.57;45.76;98513.19;4953601;28;4104;-66
2023/03/14 13:07:10;;;;;;;;;;;;;;;21.57;46.09;98510.31;4940697;28;4493;-70
2023/03/14 13:09:45;;;;;;;;;;;;;;;21.57;46.30;98498.06;4935071;28;4142;-70
2023/03/14 13:12:13;;;;;;;;;;;;;;;21.58;46.45;98485.09;4939729;28;4066;-71
2023/03/14 13:14:49;;;;;;;;;;;;;;;21.56;46.30;98485.84;4957046;28;4534;-70